sensor_id;sensor_type;location;lat;lon;timestamp;P1;durP1;ratioP1;P2;durP2;ratioP2
14294;SDS011;7231;59.370;18.016;2024-03-02T00:00:50;37.22;;;20.15;;
14294;SDS011;7231;59.370;18.016;2024-03-02T00:03:19;39.42;;;20.48;;
14294;SDS011;7231;59.370;18.016;2024-03-02T00:05:50;38.33;;;21.73;;
14294;SDS011;7231;59.370;18.016;2024-03-02T00:08:22;44.45;;;21.33;;
14294;SDS011;7231;59.370;18.016;2024-03-02T00:10:53;41.65;;;21.92;;
14294;SDS011;7231;59.370;18.016;2024-03-02T00:13:27;41.13;;;20.50;;
14294;SDS011;7231;59.370;18.016;2024-03-02T00:15:56;35.65;;;20.63;;
14294;SDS011;7231;59.370;18.016;2024-03-02T00:18:25;42.53;;;20.90;;
14294;SDS011;7231;59.370;18.016;2024-03-02T00:20:54;39.92;;;21.45;;
14294;SDS011;7231;59.370;18.016;2024-03-02T00:23:24;40.80;;;21.05;;
14294;SDS011;7231;59.370;18.016;2024-03-02T00:25:55;39.88;;;21.30;;
14294;SDS011;7231;59.370;18.016;2024-03-02T00:28:23;35.95;;;20.75;;
14294;SDS011;7231;59.370;18.016;2024-03-02T00:30:58;43.03;;;21.13;;
14294;SDS011;7231;59.370;18.016;2024-03-02T00:33:27;39.30;;;20.33;;
14294;SDS011;7231;59.370;18.016;2024-03-02T00:35:58;40.50;;;21.25;;
14294;SDS011;7231;59.370;18.016;2024-03-02T00:38:27;45.20;;;23.30;;
14294;SDS011;7231;59.370;18.016;2024-03-02T00:40:56;40.67;;;20.58;;
14294;SDS011;7231;59.370;18.016;2024-03-02T00:43:38;48.60;;;23.85;;
14294;SDS011;7231;59.370;18.016;2024-03-02T00:46:15;48.10;;;22.67;;
14294;SDS011;7231;59.370;18.016;2024-03-02T00:48:55;42.75;;;21.80;;
14294;SDS011;7231;59.370;18.016;2024-03-02T00:51:25;46.45;;;22.45;;
14294;SDS011;7231;59.370;18.016;2024-03-02T00:53:55;43.05;;;21.52;;
14294;SDS011;7231;59.370;18.016;2024-03-02T00:56:25;50.65;;;23.38;;
14294;SDS011;7231;59.370;18.016;2024-03-02T00:58:54;46.28;;;22.50;;
14294;SDS011;7231;59.370;18.016;2024-03-02T01:01:23;50.78;;;23.45;;
14294;SDS011;7231;59.370;18.016;2024-03-02T01:03:51;52.28;;;22.35;;
14294;SDS011;7231;59.370;18.016;2024-03-02T01:06:20;50.72;;;23.45;;
14294;SDS011;7231;59.370;18.016;2024-03-02T01:08:49;47.80;;;24.75;;
14294;SDS011;7231;59.370;18.016;2024-03-02T01:11:19;53.72;;;24.50;;
14294;SDS011;7231;59.370;18.016;2024-03-02T01:13:49;49.80;;;23.73;;
14294;SDS011;7231;59.370;18.016;2024-03-02T01:16:18;51.23;;;23.47;;
14294;SDS011;7231;59.370;18.016;2024-03-02T01:18:48;55.73;;;25.60;;
14294;SDS011;7231;59.370;18.016;2024-03-02T01:21:17;54.87;;;24.67;;
14294;SDS011;7231;59.370;18.016;2024-03-02T01:23:45;56.10;;;25.60;;
14294;SDS011;7231;59.370;18.016;2024-03-02T01:26:14;58.57;;;24.47;;
14294;SDS011;7231;59.370;18.016;2024-03-02T01:28:42;49.45;;;25.00;;
14294;SDS011;7231;59.370;18.016;2024-03-02T01:31:10;49.72;;;23.92;;
14294;SDS011;7231;59.370;18.016;2024-03-02T01:33:38;58.00;;;27.23;;
14294;SDS011;7231;59.370;18.016;2024-03-02T01:36:08;53.90;;;25.37;;
14294;SDS011;7231;59.370;18.016;2024-03-02T01:38:36;54.83;;;25.57;;
14294;SDS011;7231;59.370;18.016;2024-03-02T01:41:04;64.23;;;27.27;;
14294;SDS011;7231;59.370;18.016;2024-03-02T01:43:32;47.33;;;24.30;;
14294;SDS011;7231;59.370;18.016;2024-03-02T01:46:03;59.33;;;26.80;;
14294;SDS011;7231;59.370;18.016;2024-03-02T01:48:32;59.83;;;26.30;;
14294;SDS011;7231;59.370;18.016;2024-03-02T01:51:00;59.17;;;26.30;;
14294;SDS011;7231;59.370;18.016;2024-03-02T01:53:30;58.57;;;26.30;;
14294;SDS011;7231;59.370;18.016;2024-03-02T01:55:58;60.97;;;26.77;;
14294;SDS011;7231;59.370;18.016;2024-03-02T01:58:27;61.00;;;27.70;;
14294;SDS011;7231;59.370;18.016;2024-03-02T02:00:56;65.85;;;27.13;;
14294;SDS011;7231;59.370;18.016;2024-03-02T02:03:24;58.73;;;27.60;;
14294;SDS011;7231;59.370;18.016;2024-03-02T02:05:52;58.63;;;26.47;;
14294;SDS011;7231;59.370;18.016;2024-03-02T02:08:20;55.33;;;26.90;;
14294;SDS011;7231;59.370;18.016;2024-03-02T02:10:50;62.17;;;27.30;;
14294;SDS011;7231;59.370;18.016;2024-03-02T02:13:18;60.03;;;26.73;;
14294;SDS011;7231;59.370;18.016;2024-03-02T02:15:47;57.67;;;27.13;;
14294;SDS011;7231;59.370;18.016;2024-03-02T02:18:15;69.97;;;28.97;;
14294;SDS011;7231;59.370;18.016;2024-03-02T02:20:43;60.27;;;27.63;;
14294;SDS011;7231;59.370;18.016;2024-03-02T02:23:12;60.60;;;26.80;;
14294;SDS011;7231;59.370;18.016;2024-03-02T02:25:41;65.40;;;28.67;;
14294;SDS011;7231;59.370;18.016;2024-03-02T02:28:09;61.50;;;27.60;;
14294;SDS011;7231;59.370;18.016;2024-03-02T02:30:37;69.80;;;28.13;;
14294;SDS011;7231;59.370;18.016;2024-03-02T02:33:05;71.40;;;28.20;;
14294;SDS011;7231;59.370;18.016;2024-03-02T02:35:33;70.77;;;28.40;;
14294;SDS011;7231;59.370;18.016;2024-03-02T02:38:01;67.43;;;28.90;;
14294;SDS011;7231;59.370;18.016;2024-03-02T02:40:32;62.00;;;27.70;;
14294;SDS011;7231;59.370;18.016;2024-03-02T02:43:00;61.73;;;28.50;;
14294;SDS011;7231;59.370;18.016;2024-03-02T02:45:28;58.40;;;28.27;;
14294;SDS011;7231;59.370;18.016;2024-03-02T02:47:57;64.00;;;28.80;;
14294;SDS011;7231;59.370;18.016;2024-03-02T02:50:25;68.03;;;29.97;;
14294;SDS011;7231;59.370;18.016;2024-03-02T02:52:53;60.07;;;28.60;;
14294;SDS011;7231;59.370;18.016;2024-03-02T02:55:21;64.90;;;28.70;;
14294;SDS011;7231;59.370;18.016;2024-03-02T02:57:51;70.50;;;30.20;;
14294;SDS011;7231;59.370;18.016;2024-03-02T03:00:19;61.53;;;29.23;;
14294;SDS011;7231;59.370;18.016;2024-03-02T03:02:49;67.90;;;29.27;;
14294;SDS011;7231;59.370;18.016;2024-03-02T03:05:17;67.23;;;30.40;;
14294;SDS011;7231;59.370;18.016;2024-03-02T03:07:46;70.97;;;30.20;;
14294;SDS011;7231;59.370;18.016;2024-03-02T03:10:16;66.23;;;30.13;;
14294;SDS011;7231;59.370;18.016;2024-03-02T03:12:45;71.17;;;30.80;;
14294;SDS011;7231;59.370;18.016;2024-03-02T03:15:14;73.77;;;31.43;;
14294;SDS011;7231;59.370;18.016;2024-03-02T03:17:44;70.47;;;30.93;;
14294;SDS011;7231;59.370;18.016;2024-03-02T03:20:14;72.03;;;31.10;;
14294;SDS011;7231;59.370;18.016;2024-03-02T03:22:42;70.77;;;30.60;;
14294;SDS011;7231;59.370;18.016;2024-03-02T03:25:10;75.77;;;31.90;;
14294;SDS011;7231;59.370;18.016;2024-03-02T03:27:39;72.60;;;31.93;;
14294;SDS011;7231;59.370;18.016;2024-03-02T03:30:08;76.03;;;32.43;;
14294;SDS011;7231;59.370;18.016;2024-03-02T03:32:39;77.73;;;32.33;;
14294;SDS011;7231;59.370;18.016;2024-03-02T03:35:07;75.43;;;32.73;;
14294;SDS011;7231;59.370;18.016;2024-03-02T03:37:35;77.27;;;32.17;;
14294;SDS011;7231;59.370;18.016;2024-03-02T03:40:04;71.47;;;33.03;;
14294;SDS011;7231;59.370;18.016;2024-03-02T03:42:37;71.80;;;31.57;;
14294;SDS011;7231;59.370;18.016;2024-03-02T03:45:06;73.67;;;32.73;;
14294;SDS011;7231;59.370;18.016;2024-03-02T03:47:35;78.33;;;31.33;;
14294;SDS011;7231;59.370;18.016;2024-03-02T03:50:05;67.27;;;30.37;;
14294;SDS011;7231;59.370;18.016;2024-03-02T03:52:34;70.70;;;32.77;;
14294;SDS011;7231;59.370;18.016;2024-03-02T03:55:02;75.00;;;31.87;;
14294;SDS011;7231;59.370;18.016;2024-03-02T03:57:32;68.60;;;30.33;;
14294;SDS011;7231;59.370;18.016;2024-03-02T04:00:00;69.27;;;31.47;;
14294;SDS011;7231;59.370;18.016;2024-03-02T04:02:29;72.20;;;31.00;;
14294;SDS011;7231;59.370;18.016;2024-03-02T04:04:57;74.90;;;33.23;;
14294;SDS011;7231;59.370;18.016;2024-03-02T04:07:26;69.67;;;31.57;;
14294;SDS011;7231;59.370;18.016;2024-03-02T04:09:54;68.90;;;30.33;;
14294;SDS011;7231;59.370;18.016;2024-03-02T04:12:22;75.70;;;30.67;;
14294;SDS011;7231;59.370;18.016;2024-03-02T04:14:50;69.17;;;31.50;;
14294;SDS011;7231;59.370;18.016;2024-03-02T04:17:19;68.60;;;31.70;;
14294;SDS011;7231;59.370;18.016;2024-03-02T04:19:47;68.80;;;30.70;;
14294;SDS011;7231;59.370;18.016;2024-03-02T04:22:15;73.57;;;31.63;;
14294;SDS011;7231;59.370;18.016;2024-03-02T04:24:52;69.33;;;31.23;;
14294;SDS011;7231;59.370;18.016;2024-03-02T04:27:20;72.93;;;31.53;;
14294;SDS011;7231;59.370;18.016;2024-03-02T04:29:48;73.00;;;31.63;;
14294;SDS011;7231;59.370;18.016;2024-03-02T04:32:17;72.83;;;32.70;;
14294;SDS011;7231;59.370;18.016;2024-03-02T04:34:46;69.30;;;31.43;;
14294;SDS011;7231;59.370;18.016;2024-03-02T04:37:14;77.13;;;32.57;;
14294;SDS011;7231;59.370;18.016;2024-03-02T04:39:42;78.40;;;31.77;;
14294;SDS011;7231;59.370;18.016;2024-03-02T04:42:12;70.53;;;31.90;;
14294;SDS011;7231;59.370;18.016;2024-03-02T04:44:40;70.40;;;31.83;;
14294;SDS011;7231;59.370;18.016;2024-03-02T04:47:08;73.90;;;32.27;;
14294;SDS011;7231;59.370;18.016;2024-03-02T04:49:36;78.40;;;31.50;;
14294;SDS011;7231;59.370;18.016;2024-03-02T04:52:04;73.60;;;31.90;;
14294;SDS011;7231;59.370;18.016;2024-03-02T04:54:32;77.27;;;30.97;;
14294;SDS011;7231;59.370;18.016;2024-03-02T04:57:23;68.00;;;30.10;;
14294;SDS011;7231;59.370;18.016;2024-03-02T04:59:51;77.80;;;32.33;;
14294;SDS011;7231;59.370;18.016;2024-03-02T05:02:19;70.87;;;30.53;;
14294;SDS011;7231;59.370;18.016;2024-03-02T05:04:47;71.53;;;31.60;;
14294;SDS011;7231;59.370;18.016;2024-03-02T05:07:15;73.90;;;32.30;;
14294;SDS011;7231;59.370;18.016;2024-03-02T05:09:43;79.23;;;32.43;;
14294;SDS011;7231;59.370;18.016;2024-03-02T05:12:12;80.47;;;31.93;;
14294;SDS011;7231;59.370;18.016;2024-03-02T05:15:12;70.93;;;31.20;;
14294;SDS011;7231;59.370;18.016;2024-03-02T05:17:42;79.30;;;31.67;;
14294;SDS011;7231;59.370;18.016;2024-03-02T05:20:10;77.80;;;31.73;;
14294;SDS011;7231;59.370;18.016;2024-03-02T05:22:38;82.30;;;32.00;;
14294;SDS011;7231;59.370;18.016;2024-03-02T05:25:07;80.63;;;32.10;;
14294;SDS011;7231;59.370;18.016;2024-03-02T05:27:36;90.83;;;34.50;;
14294;SDS011;7231;59.370;18.016;2024-03-02T05:30:04;86.33;;;33.17;;
14294;SDS011;7231;59.370;18.016;2024-03-02T05:32:35;75.90;;;32.60;;
14294;SDS011;7231;59.370;18.016;2024-03-02T05:35:04;82.90;;;32.00;;
14294;SDS011;7231;59.370;18.016;2024-03-02T05:37:32;82.70;;;33.93;;
14294;SDS011;7231;59.370;18.016;2024-03-02T05:40:01;77.53;;;32.70;;
14294;SDS011;7231;59.370;18.016;2024-03-02T05:42:29;83.63;;;32.93;;
14294;SDS011;7231;59.370;18.016;2024-03-02T05:44:57;77.93;;;32.07;;
14294;SDS011;7231;59.370;18.016;2024-03-02T05:47:25;86.93;;;33.63;;
14294;SDS011;7231;59.370;18.016;2024-03-02T05:49:55;81.73;;;34.70;;
14294;SDS011;7231;59.370;18.016;2024-03-02T05:52:23;91.00;;;34.73;;
14294;SDS011;7231;59.370;18.016;2024-03-02T05:54:51;85.20;;;33.03;;
14294;SDS011;7231;59.370;18.016;2024-03-02T05:57:20;81.67;;;33.20;;
14294;SDS011;7231;59.370;18.016;2024-03-02T06:00:03;85.27;;;33.37;;
14294;SDS011;7231;59.370;18.016;2024-03-02T06:02:34;79.73;;;32.37;;
14294;SDS011;7231;59.370;18.016;2024-03-02T06:05:07;76.20;;;32.13;;
14294;SDS011;7231;59.370;18.016;2024-03-02T06:07:35;77.00;;;32.40;;
14294;SDS011;7231;59.370;18.016;2024-03-02T06:10:03;72.80;;;31.67;;
14294;SDS011;7231;59.370;18.016;2024-03-02T06:12:37;78.47;;;32.53;;
14294;SDS011;7231;59.370;18.016;2024-03-02T06:15:06;82.93;;;32.30;;
14294;SDS011;7231;59.370;18.016;2024-03-02T06:17:34;73.53;;;30.63;;
14294;SDS011;7231;59.370;18.016;2024-03-02T06:20:03;78.73;;;31.63;;
14294;SDS011;7231;59.370;18.016;2024-03-02T06:22:36;79.20;;;31.17;;
14294;SDS011;7231;59.370;18.016;2024-03-02T06:25:04;75.67;;;30.10;;
14294;SDS011;7231;59.370;18.016;2024-03-02T06:27:33;72.10;;;30.57;;
14294;SDS011;7231;59.370;18.016;2024-03-02T06:30:01;69.23;;;30.93;;
14294;SDS011;7231;59.370;18.016;2024-03-02T06:32:30;70.70;;;30.40;;
14294;SDS011;7231;59.370;18.016;2024-03-02T06:34:59;69.63;;;30.30;;
14294;SDS011;7231;59.370;18.016;2024-03-02T06:37:27;83.50;;;31.30;;
14294;SDS011;7231;59.370;18.016;2024-03-02T06:39:57;69.30;;;29.83;;
14294;SDS011;7231;59.370;18.016;2024-03-02T06:42:25;66.30;;;29.53;;
14294;SDS011;7231;59.370;18.016;2024-03-02T06:44:53;67.23;;;30.37;;
14294;SDS011;7231;59.370;18.016;2024-03-02T06:47:22;67.17;;;27.67;;
14294;SDS011;7231;59.370;18.016;2024-03-02T06:49:50;65.20;;;28.30;;
14294;SDS011;7231;59.370;18.016;2024-03-02T06:52:19;61.77;;;27.80;;
14294;SDS011;7231;59.370;18.016;2024-03-02T06:54:50;63.78;;;26.60;;
14294;SDS011;7231;59.370;18.016;2024-03-02T06:57:20;59.47;;;26.95;;
14294;SDS011;7231;59.370;18.016;2024-03-02T06:59:51;53.17;;;25.95;;
14294;SDS011;7231;59.370;18.016;2024-03-02T07:02:21;68.05;;;26.48;;
14294;SDS011;7231;59.370;18.016;2024-03-02T07:04:50;60.05;;;25.85;;
14294;SDS011;7231;59.370;18.016;2024-03-02T07:07:18;56.80;;;26.23;;
14294;SDS011;7231;59.370;18.016;2024-03-02T07:09:49;56.10;;;24.92;;
14294;SDS011;7231;59.370;18.016;2024-03-02T07:12:18;54.92;;;24.30;;
14294;SDS011;7231;59.370;18.016;2024-03-02T07:14:47;52.78;;;23.90;;
14294;SDS011;7231;59.370;18.016;2024-03-02T07:17:34;56.53;;;24.98;;
14294;SDS011;7231;59.370;18.016;2024-03-02T07:20:04;51.88;;;23.90;;
14294;SDS011;7231;59.370;18.016;2024-03-02T07:22:33;51.20;;;23.60;;
14294;SDS011;7231;59.370;18.016;2024-03-02T07:25:01;48.00;;;22.88;;
14294;SDS011;7231;59.370;18.016;2024-03-02T07:27:31;46.58;;;23.85;;
14294;SDS011;7231;59.370;18.016;2024-03-02T07:30:00;44.53;;;21.90;;
14294;SDS011;7231;59.370;18.016;2024-03-02T07:32:28;49.25;;;22.40;;
14294;SDS011;7231;59.370;18.016;2024-03-02T07:34:56;45.72;;;22.02;;
14294;SDS011;7231;59.370;18.016;2024-03-02T07:37:25;43.75;;;22.45;;
14294;SDS011;7231;59.370;18.016;2024-03-02T07:39:53;43.88;;;21.00;;
14294;SDS011;7231;59.370;18.016;2024-03-02T07:42:22;46.05;;;21.48;;
14294;SDS011;7231;59.370;18.016;2024-03-02T07:44:51;47.22;;;21.73;;
14294;SDS011;7231;59.370;18.016;2024-03-02T07:47:19;40.30;;;20.98;;
14294;SDS011;7231;59.370;18.016;2024-03-02T07:49:47;36.63;;;20.27;;
14294;SDS011;7231;59.370;18.016;2024-03-02T07:52:16;35.15;;;20.02;;
14294;SDS011;7231;59.370;18.016;2024-03-02T07:54:44;36.20;;;19.40;;
14294;SDS011;7231;59.370;18.016;2024-03-02T07:57:12;41.75;;;20.17;;
14294;SDS011;7231;59.370;18.016;2024-03-02T07:59:40;38.17;;;20.88;;
14294;SDS011;7231;59.370;18.016;2024-03-02T08:02:11;35.60;;;18.77;;
14294;SDS011;7231;59.370;18.016;2024-03-02T08:04:40;34.60;;;19.10;;
14294;SDS011;7231;59.370;18.016;2024-03-02T08:07:08;37.47;;;19.88;;
14294;SDS011;7231;59.370;18.016;2024-03-02T08:09:36;35.25;;;18.42;;
14294;SDS011;7231;59.370;18.016;2024-03-02T08:12:05;32.83;;;18.67;;
14294;SDS011;7231;59.370;18.016;2024-03-02T08:14:33;33.42;;;17.88;;
14294;SDS011;7231;59.370;18.016;2024-03-02T08:17:02;31.15;;;18.42;;
14294;SDS011;7231;59.370;18.016;2024-03-02T08:19:37;27.42;;;17.20;;
14294;SDS011;7231;59.370;18.016;2024-03-02T08:22:05;29.85;;;17.80;;
14294;SDS011;7231;59.370;18.016;2024-03-02T08:24:34;32.58;;;17.02;;
14294;SDS011;7231;59.370;18.016;2024-03-02T08:27:03;26.92;;;15.85;;
14294;SDS011;7231;59.370;18.016;2024-03-02T08:29:31;25.95;;;16.10;;
14294;SDS011;7231;59.370;18.016;2024-03-02T08:31:59;31.38;;;17.52;;
14294;SDS011;7231;59.370;18.016;2024-03-02T08:34:28;29.42;;;16.08;;
14294;SDS011;7231;59.370;18.016;2024-03-02T08:36:57;26.35;;;16.00;;
14294;SDS011;7231;59.370;18.016;2024-03-02T08:39:26;27.00;;;17.08;;
14294;SDS011;7231;59.370;18.016;2024-03-02T08:41:54;28.27;;;16.65;;
14294;SDS011;7231;59.370;18.016;2024-03-02T08:44:22;27.67;;;16.60;;
14294;SDS011;7231;59.370;18.016;2024-03-02T08:46:51;31.63;;;16.25;;
14294;SDS011;7231;59.370;18.016;2024-03-02T08:49:19;25.20;;;14.70;;
14294;SDS011;7231;59.370;18.016;2024-03-02T08:51:47;24.95;;;14.70;;
14294;SDS011;7231;59.370;18.016;2024-03-02T08:54:23;26.88;;;14.65;;
14294;SDS011;7231;59.370;18.016;2024-03-02T08:56:51;21.73;;;15.02;;
14294;SDS011;7231;59.370;18.016;2024-03-02T08:59:19;24.25;;;14.90;;
14294;SDS011;7231;59.370;18.016;2024-03-02T09:01:47;26.38;;;15.40;;
14294;SDS011;7231;59.370;18.016;2024-03-02T09:04:16;31.17;;;16.20;;
14294;SDS011;7231;59.370;18.016;2024-03-02T09:06:44;27.10;;;15.10;;
14294;SDS011;7231;59.370;18.016;2024-03-02T09:09:12;23.05;;;14.43;;
14294;SDS011;7231;59.370;18.016;2024-03-02T09:11:42;22.92;;;14.18;;
14294;SDS011;7231;59.370;18.016;2024-03-02T09:14:10;23.90;;;14.65;;
14294;SDS011;7231;59.370;18.016;2024-03-02T09:16:38;22.75;;;14.38;;
14294;SDS011;7231;59.370;18.016;2024-03-02T09:19:06;24.75;;;15.82;;
14294;SDS011;7231;59.370;18.016;2024-03-02T09:21:36;23.52;;;15.07;;
14294;SDS011;7231;59.370;18.016;2024-03-02T09:24:04;21.92;;;14.38;;
14294;SDS011;7231;59.370;18.016;2024-03-02T09:26:33;21.13;;;14.60;;
14294;SDS011;7231;59.370;18.016;2024-03-02T09:29:03;21.08;;;14.07;;
14294;SDS011;7231;59.370;18.016;2024-03-02T09:31:31;25.42;;;14.77;;
14294;SDS011;7231;59.370;18.016;2024-03-02T09:33:59;24.15;;;14.98;;
14294;SDS011;7231;59.370;18.016;2024-03-02T09:36:27;20.58;;;13.48;;
14294;SDS011;7231;59.370;18.016;2024-03-02T09:38:55;21.45;;;13.68;;
14294;SDS011;7231;59.370;18.016;2024-03-02T09:41:23;19.42;;;13.32;;
14294;SDS011;7231;59.370;18.016;2024-03-02T09:43:52;18.98;;;13.05;;
14294;SDS011;7231;59.370;18.016;2024-03-02T09:46:22;22.35;;;12.80;;
14294;SDS011;7231;59.370;18.016;2024-03-02T09:48:50;19.05;;;12.63;;
14294;SDS011;7231;59.370;18.016;2024-03-02T09:51:18;21.15;;;13.05;;
14294;SDS011;7231;59.370;18.016;2024-03-02T09:53:47;19.70;;;12.73;;
14294;SDS011;7231;59.370;18.016;2024-03-02T09:56:16;18.00;;;12.65;;
14294;SDS011;7231;59.370;18.016;2024-03-02T09:58:44;20.48;;;12.25;;
14294;SDS011;7231;59.370;18.016;2024-03-02T10:01:12;19.95;;;13.23;;
14294;SDS011;7231;59.370;18.016;2024-03-02T10:03:42;16.42;;;12.27;;
14294;SDS011;7231;59.370;18.016;2024-03-02T10:06:20;17.77;;;11.98;;
14294;SDS011;7231;59.370;18.016;2024-03-02T10:08:49;18.48;;;12.90;;
14294;SDS011;7231;59.370;18.016;2024-03-02T10:11:26;19.58;;;13.27;;
14294;SDS011;7231;59.370;18.016;2024-03-02T10:14:07;19.75;;;13.48;;
14294;SDS011;7231;59.370;18.016;2024-03-02T10:16:36;17.13;;;13.30;;
14294;SDS011;7231;59.370;18.016;2024-03-02T10:19:17;17.48;;;13.35;;
14294;SDS011;7231;59.370;18.016;2024-03-02T10:21:47;19.33;;;13.40;;
14294;SDS011;7231;59.370;18.016;2024-03-02T10:24:16;20.25;;;12.98;;
14294;SDS011;7231;59.370;18.016;2024-03-02T10:26:45;20.92;;;14.00;;
14294;SDS011;7231;59.370;18.016;2024-03-02T10:29:13;19.05;;;12.63;;
14294;SDS011;7231;59.370;18.016;2024-03-02T10:31:43;19.70;;;13.10;;
14294;SDS011;7231;59.370;18.016;2024-03-02T10:34:12;19.33;;;13.13;;
14294;SDS011;7231;59.370;18.016;2024-03-02T10:36:44;19.25;;;13.32;;
14294;SDS011;7231;59.370;18.016;2024-03-02T10:39:13;20.60;;;12.90;;
14294;SDS011;7231;59.370;18.016;2024-03-02T10:41:42;20.27;;;13.10;;
14294;SDS011;7231;59.370;18.016;2024-03-02T10:44:12;18.33;;;11.82;;
14294;SDS011;7231;59.370;18.016;2024-03-02T10:46:41;21.40;;;12.73;;
14294;SDS011;7231;59.370;18.016;2024-03-02T10:49:13;20.15;;;13.10;;
14294;SDS011;7231;59.370;18.016;2024-03-02T10:51:41;20.77;;;12.52;;
14294;SDS011;7231;59.370;18.016;2024-03-02T10:54:11;18.10;;;12.95;;
14294;SDS011;7231;59.370;18.016;2024-03-02T10:56:39;18.08;;;12.10;;
14294;SDS011;7231;59.370;18.016;2024-03-02T10:59:14;20.90;;;13.30;;
14294;SDS011;7231;59.370;18.016;2024-03-02T11:01:48;20.75;;;12.85;;
14294;SDS011;7231;59.370;18.016;2024-03-02T11:04:18;24.27;;;12.48;;
14294;SDS011;7231;59.370;18.016;2024-03-02T11:06:48;17.42;;;12.73;;
14294;SDS011;7231;59.370;18.016;2024-03-02T11:09:19;17.95;;;12.52;;
14294;SDS011;7231;59.370;18.016;2024-03-02T11:11:53;20.35;;;12.70;;
14294;SDS011;7231;59.370;18.016;2024-03-02T11:14:28;18.75;;;12.65;;
14294;SDS011;7231;59.370;18.016;2024-03-02T11:16:58;16.75;;;12.15;;
14294;SDS011;7231;59.370;18.016;2024-03-02T11:19:27;21.67;;;12.65;;
14294;SDS011;7231;59.370;18.016;2024-03-02T11:21:56;16.20;;;11.93;;
14294;SDS011;7231;59.370;18.016;2024-03-02T11:24:30;21.85;;;12.70;;
14294;SDS011;7231;59.370;18.016;2024-03-02T11:27:04;20.95;;;12.35;;
14294;SDS011;7231;59.370;18.016;2024-03-02T11:29:43;19.30;;;12.60;;
14294;SDS011;7231;59.370;18.016;2024-03-02T11:32:19;18.15;;;12.32;;
14294;SDS011;7231;59.370;18.016;2024-03-02T11:34:49;19.30;;;13.48;;
14294;SDS011;7231;59.370;18.016;2024-03-02T11:37:19;18.33;;;12.88;;
14294;SDS011;7231;59.370;18.016;2024-03-02T11:39:50;20.02;;;12.48;;
14294;SDS011;7231;59.370;18.016;2024-03-02T11:42:18;16.48;;;12.25;;
14294;SDS011;7231;59.370;18.016;2024-03-02T11:44:47;20.38;;;12.23;;
14294;SDS011;7231;59.370;18.016;2024-03-02T11:47:16;18.40;;;12.55;;
14294;SDS011;7231;59.370;18.016;2024-03-02T11:49:45;19.52;;;13.05;;
14294;SDS011;7231;59.370;18.016;2024-03-02T11:52:18;19.35;;;13.05;;
14294;SDS011;7231;59.370;18.016;2024-03-02T11:54:47;18.13;;;12.48;;
14294;SDS011;7231;59.370;18.016;2024-03-02T11:57:19;20.13;;;12.40;;
14294;SDS011;7231;59.370;18.016;2024-03-02T11:59:49;19.63;;;11.55;;
14294;SDS011;7231;59.370;18.016;2024-03-02T12:02:18;17.52;;;11.93;;
14294;SDS011;7231;59.370;18.016;2024-03-02T12:04:47;20.42;;;11.75;;
14294;SDS011;7231;59.370;18.016;2024-03-02T12:07:19;18.17;;;12.35;;
14294;SDS011;7231;59.370;18.016;2024-03-02T12:09:49;22.33;;;12.60;;
14294;SDS011;7231;59.370;18.016;2024-03-02T12:12:30;24.08;;;12.35;;
14294;SDS011;7231;59.370;18.016;2024-03-02T12:14:58;18.20;;;11.85;;
14294;SDS011;7231;59.370;18.016;2024-03-02T12:17:27;22.35;;;11.98;;
14294;SDS011;7231;59.370;18.016;2024-03-02T12:19:56;18.95;;;12.68;;
14294;SDS011;7231;59.370;18.016;2024-03-02T12:22:24;20.00;;;11.88;;
14294;SDS011;7231;59.370;18.016;2024-03-02T12:24:52;21.00;;;12.13;;
14294;SDS011;7231;59.370;18.016;2024-03-02T12:27:21;20.40;;;12.48;;
14294;SDS011;7231;59.370;18.016;2024-03-02T12:29:50;18.20;;;12.75;;
14294;SDS011;7231;59.370;18.016;2024-03-02T12:32:19;23.45;;;12.43;;
14294;SDS011;7231;59.370;18.016;2024-03-02T12:34:47;21.15;;;12.23;;
14294;SDS011;7231;59.370;18.016;2024-03-02T12:37:15;18.55;;;11.38;;
14294;SDS011;7231;59.370;18.016;2024-03-02T12:39:44;20.80;;;12.40;;
14294;SDS011;7231;59.370;18.016;2024-03-02T12:42:13;18.45;;;10.82;;
14294;SDS011;7231;59.370;18.016;2024-03-02T12:44:41;14.13;;;9.68;;
14294;SDS011;7231;59.370;18.016;2024-03-02T12:47:11;20.13;;;10.90;;
14294;SDS011;7231;59.370;18.016;2024-03-02T12:49:40;18.63;;;10.82;;
14294;SDS011;7231;59.370;18.016;2024-03-02T12:52:08;24.05;;;10.32;;
14294;SDS011;7231;59.370;18.016;2024-03-02T12:54:39;17.65;;;9.85;;
14294;SDS011;7231;59.370;18.016;2024-03-02T12:57:07;20.33;;;10.07;;
14294;SDS011;7231;59.370;18.016;2024-03-02T12:59:36;21.85;;;11.27;;
14294;SDS011;7231;59.370;18.016;2024-03-02T13:02:04;15.02;;;9.85;;
14294;SDS011;7231;59.370;18.016;2024-03-02T13:04:33;17.20;;;9.90;;
14294;SDS011;7231;59.370;18.016;2024-03-02T13:07:02;16.75;;;10.43;;
14294;SDS011;7231;59.370;18.016;2024-03-02T13:09:30;18.52;;;10.30;;
14294;SDS011;7231;59.370;18.016;2024-03-02T13:12:00;20.33;;;10.63;;
14294;SDS011;7231;59.370;18.016;2024-03-02T13:14:32;15.02;;;9.52;;
14294;SDS011;7231;59.370;18.016;2024-03-02T13:17:00;13.88;;;9.27;;
14294;SDS011;7231;59.370;18.016;2024-03-02T13:19:30;15.93;;;9.52;;
14294;SDS011;7231;59.370;18.016;2024-03-02T13:22:00;18.48;;;10.18;;
14294;SDS011;7231;59.370;18.016;2024-03-02T13:24:30;16.50;;;10.30;;
14294;SDS011;7231;59.370;18.016;2024-03-02T13:26:59;15.18;;;10.00;;
14294;SDS011;7231;59.370;18.016;2024-03-02T13:29:30;16.63;;;10.05;;
14294;SDS011;7231;59.370;18.016;2024-03-02T13:31:58;14.02;;;9.85;;
14294;SDS011;7231;59.370;18.016;2024-03-02T13:34:27;20.70;;;10.20;;
14294;SDS011;7231;59.370;18.016;2024-03-02T13:36:55;19.63;;;9.70;;
14294;SDS011;7231;59.370;18.016;2024-03-02T13:39:24;15.25;;;8.93;;
14294;SDS011;7231;59.370;18.016;2024-03-02T13:41:53;17.10;;;9.27;;
14294;SDS011;7231;59.370;18.016;2024-03-02T13:44:29;15.35;;;9.70;;
14294;SDS011;7231;59.370;18.016;2024-03-02T13:46:58;15.05;;;9.40;;
14294;SDS011;7231;59.370;18.016;2024-03-02T13:49:27;18.38;;;10.07;;
14294;SDS011;7231;59.370;18.016;2024-03-02T13:52:02;16.05;;;9.40;;
14294;SDS011;7231;59.370;18.016;2024-03-02T13:54:38;19.55;;;9.35;;
14294;SDS011;7231;59.370;18.016;2024-03-02T13:57:09;18.35;;;9.60;;
14294;SDS011;7231;59.370;18.016;2024-03-02T13:59:38;15.35;;;9.32;;
14294;SDS011;7231;59.370;18.016;2024-03-02T14:02:06;15.52;;;9.20;;
14294;SDS011;7231;59.370;18.016;2024-03-02T14:04:36;12.40;;;9.32;;
14294;SDS011;7231;59.370;18.016;2024-03-02T14:07:05;12.77;;;9.63;;
14294;SDS011;7231;59.370;18.016;2024-03-02T14:09:35;16.85;;;9.93;;
14294;SDS011;7231;59.370;18.016;2024-03-02T14:12:06;15.55;;;9.93;;
14294;SDS011;7231;59.370;18.016;2024-03-02T14:14:35;16.63;;;9.18;;
14294;SDS011;7231;59.370;18.016;2024-03-02T14:17:03;16.77;;;8.80;;
14294;SDS011;7231;59.370;18.016;2024-03-02T14:19:33;14.90;;;9.60;;
14294;SDS011;7231;59.370;18.016;2024-03-02T14:22:02;22.92;;;9.68;;
14294;SDS011;7231;59.370;18.016;2024-03-02T14:24:32;12.52;;;9.60;;
14294;SDS011;7231;59.370;18.016;2024-03-02T14:27:00;15.05;;;9.88;;
14294;SDS011;7231;59.370;18.016;2024-03-02T14:29:51;14.32;;;9.45;;
14294;SDS011;7231;59.370;18.016;2024-03-02T14:32:19;15.80;;;8.90;;
14294;SDS011;7231;59.370;18.016;2024-03-02T14:34:48;17.08;;;9.45;;
14294;SDS011;7231;59.370;18.016;2024-03-02T14:37:16;20.10;;;9.57;;